Terminal Aerodrome Forecast
Issued by NWS Atlanta, GA

Home | Current Version | Previous Version | Text Only | Print | Product List | Glossary On
Versions: 1 2 3 4 5 6 7 8 9 10 11 12 13 14
000
FTUS42 KFFC 232300
TAFCSG
TAF
KCSG 232335Z 2400/2424 30004KT P6SM SKC
     FM240200 VRB03KT P6SM SKC
     FM241500 10008KT P6SM SKC
     FM241600 13008KT P6SM FEW040
     FM241900 15007KT P6SM SCT060=

USA.gov is the U.S. government's official web portal to all federal, state and local government web resources and services.